createdAt,value
2022-12-17T00:00:58.477Z,6.20
2022-12-17T00:03:42.704Z,5.60
2022-12-17T00:06:26.885Z,6.00
2022-12-17T00:09:09.405Z,5.00
2022-12-17T00:11:52.968Z,5.90
2022-12-17T00:14:39.754Z,5.70
2022-12-17T00:17:24.315Z,5.80
2022-12-17T00:20:07.850Z,5.40
2022-12-17T00:22:51.407Z,5.80
2022-12-17T00:25:34.921Z,5.90
2022-12-17T00:28:18.448Z,5.60
2022-12-17T00:31:07.967Z,5.60
2022-12-17T00:33:51.472Z,5.70
2022-12-17T00:39:20.092Z,5.80
2022-12-17T00:42:04.326Z,5.50
2022-12-17T00:44:47.858Z,5.70
2022-12-17T00:47:31.522Z,5.60
2022-12-17T00:50:15.019Z,5.50
2022-12-17T00:52:58.679Z,5.70
2022-12-17T00:55:42.311Z,5.80
2022-12-17T00:58:25.849Z,5.70
2022-12-17T01:01:15.005Z,5.70
2022-12-17T01:03:58.948Z,5.60
2022-12-17T01:06:42.993Z,5.40
2022-12-17T01:09:26.552Z,5.90
2022-12-17T01:12:10.179Z,5.40
2022-12-17T01:14:54.913Z,5.10
2022-12-17T01:17:38.577Z,5.50
2022-12-17T01:20:22.839Z,5.70
2022-12-17T01:23:06.482Z,5.10
2022-12-17T01:25:50.001Z,5.20
2022-12-17T01:28:42.359Z,5.40
2022-12-17T01:31:32.973Z,5.50
2022-12-17T01:34:18.742Z,5.40
2022-12-17T01:37:04.226Z,5.50
2022-12-17T01:39:47.761Z,5.50
2022-12-17T01:42:31.445Z,5.10
2022-12-17T01:45:16.367Z,5.70
2022-12-17T01:48:06.645Z,5.60
2022-12-17T01:50:53.536Z,5.60
2022-12-17T01:53:41.582Z,5.10
2022-12-17T01:56:26.689Z,5.20
2022-12-17T01:59:10.909Z,5.30
2022-12-17T02:04:40.456Z,5.60
2022-12-17T02:07:33.442Z,5.20
2022-12-17T02:10:49.561Z,5.80
2022-12-17T02:13:40.949Z,5.20
2022-12-17T02:16:39.273Z,5.30
2022-12-17T02:19:47.233Z,5.40
2022-12-17T02:22:47.158Z,5.60
2022-12-17T02:25:44.630Z,5.50
2022-12-17T02:28:29.805Z,5.90
2022-12-17T02:31:14.794Z,5.70
2022-12-17T02:33:59.200Z,5.90
2022-12-17T02:39:25.382Z,5.50
2022-12-17T02:42:11.334Z,5.20
2022-12-17T02:44:56.740Z,5.30
2022-12-17T02:47:40.358Z,4.90
2022-12-17T02:50:26.073Z,5.60
2022-12-17T02:53:10.703Z,5.80
2022-12-17T02:55:54.240Z,5.60
2022-12-17T02:58:37.895Z,5.70
2022-12-17T03:01:21.956Z,5.80
2022-12-17T03:06:49.844Z,5.60
2022-12-17T03:09:33.356Z,6.00
2022-12-17T03:12:17.512Z,5.80
2022-12-17T03:15:01.155Z,5.30
2022-12-17T03:17:46.936Z,5.80
2022-12-17T03:20:30.888Z,5.70
2022-12-17T03:23:20.263Z,6.10
2022-12-17T03:26:03.779Z,6.10
2022-12-17T03:28:48.353Z,6.10
2022-12-17T03:31:31.990Z,5.80
2022-12-17T03:34:15.632Z,6.10
2022-12-17T03:36:59.276Z,5.50
2022-12-17T03:39:42.796Z,5.60
2022-12-17T03:42:25.380Z,5.80
2022-12-17T03:45:08.955Z,5.20
2022-12-17T03:47:52.586Z,5.60
2022-12-17T03:50:36.133Z,5.90
2022-12-17T03:53:20.784Z,5.40
2022-12-17T03:56:03.382Z,6.00
2022-12-17T03:58:46.938Z,5.30
2022-12-17T04:01:30.669Z,5.50
2022-12-17T04:04:13.394Z,5.60
2022-12-17T04:06:56.920Z,5.70
2022-12-17T04:09:39.417Z,5.40
2022-12-17T04:12:22.395Z,5.60
2022-12-17T04:15:05.992Z,5.50
2022-12-17T04:17:49.519Z,5.60
2022-12-17T04:20:33.212Z,5.50
2022-12-17T04:23:16.807Z,5.90
2022-12-17T04:25:59.527Z,5.00
2022-12-17T04:28:43.155Z,5.30
2022-12-17T04:31:26.831Z,5.70
2022-12-17T04:34:11.764Z,5.40
2022-12-17T04:36:56.223Z,5.40
2022-12-17T04:39:39.852Z,5.10
2022-12-17T04:42:22.388Z,5.30
2022-12-17T04:45:05.932Z,5.30
2022-12-17T04:47:48.488Z,5.80
2022-12-17T04:50:32.053Z,5.50
2022-12-17T04:53:19.475Z,5.60
2022-12-17T04:56:03.125Z,5.50
2022-12-17T04:58:47.281Z,5.10
2022-12-17T05:04:14.646Z,5.50
2022-12-17T05:06:58.199Z,5.40
2022-12-17T05:09:41.827Z,5.80
2022-12-17T05:12:25.360Z,5.60
2022-12-17T05:15:08.980Z,5.50
2022-12-17T05:17:51.463Z,5.50
2022-12-17T05:20:35.034Z,5.50
2022-12-17T05:23:23.080Z,5.70
2022-12-17T05:26:26.572Z,5.60
2022-12-17T05:29:15.601Z,5.60
2022-12-17T05:31:59.456Z,5.80
2022-12-17T05:34:44.153Z,5.90
2022-12-17T05:37:27.693Z,5.50
2022-12-17T05:40:12.809Z,5.50
2022-12-17T05:42:56.602Z,5.50
2022-12-17T05:45:40.246Z,5.50
2022-12-17T05:48:23.879Z,5.60
2022-12-17T05:51:07.508Z,5.50
2022-12-17T05:53:51.472Z,5.40
2022-12-17T05:56:35.099Z,5.60
2022-12-17T05:59:18.622Z,5.60
2022-12-17T06:02:02.202Z,5.20
2022-12-17T06:04:45.896Z,5.40
2022-12-17T06:07:28.410Z,5.60
2022-12-17T06:10:11.957Z,5.40
2022-12-17T06:12:55.592Z,5.60
2022-12-17T06:15:40.822Z,5.40
2022-12-17T06:18:23.579Z,5.30
2022-12-17T06:21:08.357Z,5.90
2022-12-17T06:23:51.914Z,5.40
2022-12-17T06:26:35.970Z,5.70
2022-12-17T06:29:18.562Z,5.30
2022-12-17T06:32:02.194Z,5.70
2022-12-17T06:34:45.835Z,5.50
2022-12-17T06:37:29.469Z,5.20
2022-12-17T06:40:13.009Z,5.60
2022-12-17T06:42:56.644Z,5.30
2022-12-17T06:45:40.289Z,5.70
2022-12-17T06:48:25.239Z,5.30
2022-12-17T06:51:12.671Z,5.50
2022-12-17T06:53:57.525Z,5.50
2022-12-17T06:56:41.090Z,5.60
2022-12-17T06:59:24.718Z,5.20
2022-12-17T07:02:08.531Z,5.50
2022-12-17T07:04:52.187Z,5.50
2022-12-17T07:07:35.831Z,5.50
2022-12-17T07:10:20.188Z,5.70
2022-12-17T07:13:03.817Z,5.50
2022-12-17T07:15:47.302Z,5.60
2022-12-17T07:18:31.124Z,5.70
2022-12-17T07:21:14.741Z,5.50
2022-12-17T07:23:58.366Z,5.40
2022-12-17T07:26:41.891Z,5.90
2022-12-17T07:29:25.552Z,8.90
2022-12-17T07:32:09.196Z,11.70
2022-12-17T07:34:52.936Z,9.00
2022-12-17T07:37:35.545Z,6.50
2022-12-17T07:40:19.778Z,5.80
2022-12-17T07:43:03.326Z,6.20
2022-12-17T07:45:47.027Z,5.30
2022-12-17T07:48:30.902Z,5.70
2022-12-17T07:51:13.492Z,8.00
2022-12-17T07:53:57.234Z,7.60
2022-12-17T07:56:40.804Z,7.50
2022-12-17T07:59:24.636Z,7.90
2022-12-17T08:02:08.441Z,8.40
2022-12-17T08:04:52.236Z,7.10
2022-12-17T08:07:35.759Z,5.70
2022-12-17T08:10:19.817Z,5.80
2022-12-17T08:15:58.614Z,6.10
2022-12-17T08:18:42.686Z,5.60
2022-12-17T08:21:26.228Z,5.60
2022-12-17T08:24:09.757Z,5.20
2022-12-17T08:26:53.290Z,5.50
2022-12-17T08:29:36.836Z,5.90
2022-12-17T08:32:20.485Z,6.20
2022-12-17T08:35:04.019Z,6.00
2022-12-17T08:37:47.651Z,5.70
2022-12-17T08:40:31.292Z,5.40
2022-12-17T08:43:15.030Z,6.00
2022-12-17T08:46:06.355Z,5.40
2022-12-17T08:48:50.401Z,5.10
2022-12-17T08:51:34.346Z,5.40
2022-12-17T08:54:17.992Z,5.30
2022-12-17T08:57:01.609Z,5.30
2022-12-17T08:59:45.132Z,5.30
2022-12-17T09:02:28.921Z,4.80
2022-12-17T09:08:04.240Z,5.10
2022-12-17T09:10:47.815Z,5.40
2022-12-17T09:13:32.022Z,5.20
2022-12-17T09:16:22.927Z,5.10
2022-12-17T09:19:06.574Z,5.10
2022-12-17T09:21:50.219Z,5.20
2022-12-17T09:24:33.760Z,5.10
2022-12-17T09:27:16.376Z,5.30
2022-12-17T09:29:59.936Z,5.10
2022-12-17T09:32:43.640Z,6.00
2022-12-17T09:35:27.698Z,5.10
2022-12-17T09:38:12.649Z,5.60
2022-12-17T09:40:57.822Z,4.60
2022-12-17T09:43:55.812Z,5.00
2022-12-17T09:47:04.222Z,5.30
2022-12-17T09:49:47.351Z,5.00
2022-12-17T09:52:40.112Z,5.20
2022-12-17T09:55:41.763Z,4.70
2022-12-17T09:58:42.921Z,5.20
2022-12-17T10:01:34.314Z,4.80
2022-12-17T10:04:21.056Z,4.90
2022-12-17T10:07:04.696Z,4.90
2022-12-17T10:09:50.282Z,5.50
2022-12-17T10:12:36.143Z,5.10
2022-12-17T10:15:20.816Z,5.00
2022-12-17T10:18:04.458Z,5.20
2022-12-17T10:21:08.481Z,5.40
2022-12-17T10:23:52.105Z,4.80
2022-12-17T10:26:45.078Z,5.20
2022-12-17T10:29:34.944Z,5.10
2022-12-17T10:32:36.199Z,4.90
2022-12-17T10:35:36.446Z,5.10
2022-12-17T10:38:28.223Z,5.10
2022-12-17T10:41:12.116Z,5.20
2022-12-17T10:43:58.303Z,5.10
2022-12-17T10:46:47.785Z,5.00
2022-12-17T10:49:37.676Z,5.10
2022-12-17T10:52:37.458Z,5.10
2022-12-17T10:55:21.419Z,5.10
2022-12-17T10:58:07.314Z,4.90
2022-12-17T11:00:55.044Z,5.20
2022-12-17T11:03:44.868Z,4.90
2022-12-17T11:06:36.242Z,5.00
2022-12-17T11:09:32.578Z,4.70
2022-12-17T11:12:18.149Z,5.00
2022-12-17T11:15:08.153Z,4.70
2022-12-17T11:17:54.255Z,4.40
2022-12-17T11:20:44.652Z,4.70
2022-12-17T11:23:34.790Z,4.80
2022-12-17T11:26:28.289Z,4.50
2022-12-17T11:29:11.939Z,4.80
2022-12-17T11:31:58.697Z,4.80
2022-12-17T11:34:52.716Z,4.50
2022-12-17T11:37:41.505Z,5.00
2022-12-17T11:40:43.957Z,4.60
2022-12-17T11:43:49.228Z,4.80
2022-12-17T11:46:51.834Z,4.70
2022-12-17T11:49:48.799Z,4.40
2022-12-17T11:52:48.253Z,4.50
2022-12-17T11:56:01.276Z,4.50
2022-12-17T11:59:08.331Z,4.60
2022-12-17T12:01:57.489Z,4.50
2022-12-17T12:05:00.160Z,4.70
2022-12-17T12:08:20.024Z,4.90
2022-12-17T12:11:31.559Z,4.80
2022-12-17T12:14:32.015Z,4.50
2022-12-17T12:17:36.769Z,4.40
2022-12-17T12:20:40.397Z,4.90
2022-12-17T12:23:40.992Z,4.80
2022-12-17T12:26:31.049Z,4.80
2022-12-17T12:29:33.671Z,4.80
2022-12-17T12:32:39.367Z,4.70
2022-12-17T12:35:31.159Z,4.80
2022-12-17T12:38:16.770Z,4.90
2022-12-17T12:41:14.383Z,4.50
2022-12-17T12:44:05.854Z,4.40
2022-12-17T12:47:04.941Z,4.60
2022-12-17T12:50:05.579Z,4.50
2022-12-17T12:52:49.504Z,4.50
2022-12-17T12:55:33.173Z,4.70
2022-12-17T12:58:37.334Z,4.60
2022-12-17T13:01:21.371Z,4.70
2022-12-17T13:04:08.932Z,4.50
2022-12-17T13:06:45.768Z,4.20
2022-12-17T13:09:22.596Z,4.40
2022-12-17T13:12:02.412Z,4.60
2022-12-17T13:15:01.967Z,4.40
2022-12-17T13:17:39.658Z,4.40
2022-12-17T13:20:25.518Z,4.40
2022-12-17T13:23:06.413Z,4.30
2022-12-17T13:25:34.030Z,4.20
2022-12-17T13:28:02.236Z,4.40
2022-12-17T13:30:36.452Z,4.40
2022-12-17T13:33:31.367Z,4.30
2022-12-17T13:36:17.759Z,4.50
2022-12-17T13:38:54.129Z,4.20
2022-12-17T13:41:29.896Z,3.80
2022-12-17T13:44:02.159Z,4.10
2022-12-17T13:46:46.434Z,4.30
2022-12-17T13:49:22.452Z,4.30
2022-12-17T13:52:11.773Z,4.40
2022-12-17T13:54:39.768Z,4.20
2022-12-17T13:57:09.937Z,4.30
2022-12-17T13:59:38.106Z,4.30
2022-12-17T14:02:06.351Z,3.80
2022-12-17T14:04:34.051Z,4.20
2022-12-17T14:07:06.036Z,4.10
2022-12-17T14:09:38.976Z,4.10
2022-12-17T14:12:23.367Z,4.10
2022-12-17T14:14:57.947Z,4.00
2022-12-17T14:17:36.503Z,4.10
2022-12-17T14:20:11.545Z,3.90
2022-12-17T14:22:51.643Z,3.90
2022-12-17T14:25:26.018Z,4.30
2022-12-17T14:28:03.276Z,4.30
2022-12-17T14:30:46.167Z,3.70
2022-12-17T14:33:25.785Z,4.30
2022-12-17T14:35:58.610Z,4.20
2022-12-17T14:38:37.981Z,4.20
2022-12-17T14:41:34.633Z,4.30
2022-12-17T14:44:03.202Z,4.00
2022-12-17T14:46:32.934Z,4.10
2022-12-17T14:49:04.091Z,4.20
2022-12-17T14:51:38.246Z,4.10
2022-12-17T14:54:22.199Z,4.10
2022-12-17T14:56:50.544Z,4.40
2022-12-17T14:59:38.156Z,4.10
2022-12-17T15:02:18.115Z,4.20
2022-12-17T15:04:46.530Z,4.20
2022-12-17T15:07:18.182Z,4.30
2022-12-17T15:09:45.992Z,4.20
2022-12-17T15:12:14.694Z,4.30
2022-12-17T15:14:42.247Z,4.20
2022-12-17T15:17:09.817Z,4.00
2022-12-17T15:19:37.506Z,4.20
2022-12-17T15:22:05.353Z,4.30
2022-12-17T15:24:32.963Z,4.50
2022-12-17T15:27:00.763Z,4.00
2022-12-17T15:29:28.853Z,4.10
2022-12-17T15:31:56.470Z,4.30
2022-12-17T15:34:24.040Z,4.10
2022-12-17T15:36:51.575Z,4.00
2022-12-17T15:39:19.336Z,4.20
2022-12-17T15:42:02.954Z,4.20
2022-12-17T15:44:30.524Z,4.30
2022-12-17T15:46:58.094Z,4.20
2022-12-17T15:49:25.761Z,3.90
2022-12-17T15:51:53.296Z,4.10
2022-12-17T15:54:20.922Z,4.20
2022-12-17T15:56:53.843Z,4.00
2022-12-17T15:59:22.316Z,4.30
2022-12-17T16:01:50.199Z,4.00
2022-12-17T16:04:23.180Z,4.20
2022-12-17T16:06:53.004Z,4.30
2022-12-17T16:09:24.422Z,4.20
2022-12-17T16:11:56.472Z,3.90
2022-12-17T16:14:24.503Z,4.10
2022-12-17T16:16:52.099Z,4.20
2022-12-17T16:19:22.127Z,4.20
2022-12-17T16:21:50.076Z,4.00
2022-12-17T16:24:17.758Z,4.30
2022-12-17T16:26:45.508Z,4.20
2022-12-17T16:29:13.107Z,4.40
2022-12-17T16:31:40.836Z,4.40
2022-12-17T16:34:10.092Z,4.40
2022-12-17T16:36:37.955Z,4.40
2022-12-17T16:39:05.919Z,4.40
2022-12-17T16:41:34.586Z,4.60
2022-12-17T16:44:02.965Z,4.30
2022-12-17T16:46:36.205Z,4.30
2022-12-17T16:49:19.116Z,4.30
2022-12-17T16:51:49.928Z,4.30
2022-12-17T16:54:20.905Z,4.40
2022-12-17T16:56:49.719Z,4.10
2022-12-17T16:59:18.368Z,4.10
2022-12-17T17:01:48.566Z,4.40
2022-12-17T17:04:17.853Z,4.30
2022-12-17T17:06:51.361Z,4.30
2022-12-17T17:09:20.281Z,4.40
2022-12-17T17:11:51.789Z,3.80
2022-12-17T17:14:19.951Z,4.30
2022-12-17T17:16:47.501Z,4.40
2022-12-17T17:19:16.050Z,4.30
2022-12-17T17:21:50.595Z,4.30
2022-12-17T17:24:22.095Z,4.30
2022-12-17T17:26:51.755Z,4.60
2022-12-17T17:29:20.211Z,4.50
2022-12-17T17:34:36.912Z,4.30
2022-12-17T17:37:04.546Z,4.50
2022-12-17T17:39:34.013Z,4.30
2022-12-17T17:42:02.115Z,4.20
2022-12-17T17:44:29.671Z,4.10
2022-12-17T17:46:58.092Z,4.60
2022-12-17T17:49:25.772Z,4.50
2022-12-17T17:52:09.450Z,4.60
2022-12-17T17:54:40.115Z,4.10
2022-12-17T17:57:09.165Z,4.20
2022-12-17T17:59:39.184Z,4.40
2022-12-17T18:02:07.396Z,4.30
2022-12-17T18:04:35.329Z,4.50
2022-12-17T18:09:50.974Z,4.30
2022-12-17T18:12:34.660Z,4.70
2022-12-17T18:15:14.347Z,4.70
2022-12-17T18:17:50.288Z,4.20
2022-12-17T18:20:18.390Z,4.30
2022-12-17T18:22:47.071Z,4.70
2022-12-17T18:25:16.215Z,4.40
2022-12-17T18:27:44.497Z,4.50
2022-12-17T18:30:13.406Z,4.60
2022-12-17T18:32:42.179Z,4.80
2022-12-17T18:35:10.007Z,4.90
2022-12-17T18:37:38.331Z,4.70
2022-12-17T18:40:07.396Z,4.60
2022-12-17T18:42:52.388Z,4.20
2022-12-17T18:45:19.957Z,4.80
2022-12-17T18:47:47.885Z,4.70
2022-12-17T18:50:15.545Z,4.70
2022-12-17T18:52:43.109Z,4.70
2022-12-17T18:55:10.983Z,4.80
2022-12-17T18:57:38.638Z,4.80
2022-12-17T19:00:07.553Z,4.80
2022-12-17T19:02:35.326Z,4.80
2022-12-17T19:05:03.661Z,4.90
2022-12-17T19:07:31.234Z,5.10
2022-12-17T19:09:58.856Z,4.60
2022-12-17T19:12:26.523Z,4.80
2022-12-17T19:14:54.092Z,4.80
2022-12-17T19:17:21.754Z,5.30
2022-12-17T19:19:49.468Z,4.70
2022-12-17T19:22:17.097Z,4.80
2022-12-17T19:24:44.791Z,4.80
2022-12-17T19:27:12.371Z,4.70
2022-12-17T19:29:42.803Z,4.80
2022-12-17T19:32:12.782Z,4.90
2022-12-17T19:34:40.535Z,4.50
2022-12-17T19:37:08.117Z,4.80
2022-12-17T19:39:35.695Z,4.90
2022-12-17T19:42:03.391Z,4.50
2022-12-17T19:44:30.977Z,4.80
2022-12-17T19:46:58.676Z,4.70
2022-12-17T19:49:26.340Z,4.70
2022-12-17T19:51:54.126Z,4.80
2022-12-17T19:54:21.725Z,4.70
2022-12-17T19:56:49.298Z,4.50
2022-12-17T19:59:16.853Z,4.70
2022-12-17T20:01:47.804Z,4.50
2022-12-17T20:04:16.543Z,4.50
2022-12-17T20:06:45.619Z,4.70
2022-12-17T20:09:13.665Z,4.70
2022-12-17T20:11:41.308Z,4.80
2022-12-17T20:14:13.235Z,4.60
2022-12-17T20:16:48.139Z,4.50
2022-12-17T20:19:21.106Z,4.70
2022-12-17T20:21:49.339Z,4.50
2022-12-17T20:24:17.548Z,4.40
2022-12-17T20:26:48.942Z,4.80
2022-12-17T20:29:17.795Z,4.70
2022-12-17T20:31:49.552Z,4.70
2022-12-17T20:34:20.351Z,4.70
2022-12-17T20:36:48.379Z,4.70
2022-12-17T20:39:18.833Z,4.90
2022-12-17T20:41:51.422Z,4.90
2022-12-17T20:44:19.168Z,4.90
2022-12-17T20:46:46.739Z,5.00
2022-12-17T20:49:14.672Z,5.50
2022-12-17T20:51:42.446Z,5.10
2022-12-17T20:54:11.090Z,5.10
2022-12-17T20:56:39.855Z,4.80
2022-12-17T20:59:13.126Z,4.80
2022-12-17T21:01:41.267Z,5.00
2022-12-17T21:04:10.823Z,4.60
2022-12-17T21:06:40.286Z,4.80
2022-12-17T21:09:08.811Z,4.80
2022-12-17T21:11:38.398Z,5.20
2022-12-17T21:14:08.224Z,4.90
2022-12-17T21:16:37.670Z,5.20
2022-12-17T21:19:07.487Z,5.00
2022-12-17T21:21:37.466Z,5.10
2022-12-17T21:24:06.449Z,4.90
2022-12-17T21:26:36.920Z,5.20
2022-12-17T21:29:07.135Z,4.80
2022-12-17T21:31:56.957Z,4.50
2022-12-17T21:34:29.190Z,5.00
2022-12-17T21:36:56.942Z,4.80
2022-12-17T21:39:24.602Z,5.00
2022-12-17T21:42:09.385Z,5.10
2022-12-17T21:44:37.393Z,5.00
2022-12-17T21:47:05.395Z,5.40
2022-12-17T21:49:33.849Z,5.10
2022-12-17T21:52:02.899Z,5.20
2022-12-17T21:54:30.617Z,4.80
2022-12-17T21:56:58.235Z,4.60
2022-12-17T21:59:25.870Z,4.70
2022-12-17T22:01:57.196Z,4.80
2022-12-17T22:04:26.360Z,4.90
2022-12-17T22:06:59.350Z,4.90
2022-12-17T22:09:43.241Z,4.60
2022-12-17T22:12:43.191Z,4.60
2022-12-17T22:15:12.213Z,5.10
2022-12-17T22:17:42.079Z,4.50
2022-12-17T22:20:10.760Z,4.80
2022-12-17T22:22:38.457Z,4.90
2022-12-17T22:25:10.341Z,4.60
2022-12-17T22:27:40.711Z,4.80
2022-12-17T22:30:30.243Z,4.90
2022-12-17T22:33:02.330Z,4.80
2022-12-17T22:37:41.673Z,4.80
2022-12-17T22:40:24.405Z,4.70
2022-12-17T22:44:36.592Z,4.70
2022-12-17T22:44:45.555Z,5.00
2022-12-17T22:47:07.485Z,5.30
2022-12-17T22:49:35.080Z,4.80
2022-12-17T22:52:03.007Z,4.90
2022-12-17T22:54:30.925Z,4.80
2022-12-17T22:57:36.847Z,4.80
2022-12-17T22:59:46.539Z,4.70
2022-12-17T23:02:14.268Z,4.70
2022-12-17T23:04:42.549Z,4.80
2022-12-17T23:07:10.167Z,4.80
2022-12-17T23:09:37.764Z,4.90
2022-12-17T23:12:21.596Z,5.10
2022-12-17T23:14:49.202Z,4.90
2022-12-17T23:17:16.900Z,4.60
2022-12-17T23:19:44.483Z,4.80
2022-12-17T23:22:12.062Z,4.70
2022-12-17T23:24:39.753Z,4.70
2022-12-17T23:27:07.430Z,4.80
2022-12-17T23:29:35.112Z,4.80
2022-12-17T23:32:02.865Z,4.90
2022-12-17T23:34:30.429Z,5.20
2022-12-17T23:36:58.011Z,5.20
2022-12-17T23:39:25.786Z,5.40
2022-12-17T23:41:54.585Z,4.90
2022-12-17T23:44:22.196Z,4.90
2022-12-17T23:46:50.045Z,5.10
2022-12-17T23:49:17.779Z,5.00
2022-12-17T23:51:45.396Z,5.10
2022-12-17T23:54:13.107Z,4.80
2022-12-17T23:56:40.839Z,4.80
2022-12-17T23:59:09.494Z,4.90
